createdAt,value
2023-03-26T00:01:44.436Z,10.21
2023-03-26T00:04:52.518Z,10.13
2023-03-26T00:08:00.969Z,10.05
2023-03-26T00:11:10.495Z,10.07
2023-03-26T00:14:25.425Z,10.07
2023-03-26T00:17:27.141Z,10.02
2023-03-26T00:20:42.418Z,9.93
2023-03-26T00:23:45.005Z,9.60
2023-03-26T00:26:59.427Z,9.88
2023-03-26T00:30:15.444Z,9.83
2023-03-26T00:33:30.486Z,9.83
2023-03-26T00:36:32.406Z,9.85
2023-03-26T00:39:47.415Z,9.77
2023-03-26T00:43:02.424Z,9.73
2023-03-26T00:46:11.005Z,9.78
2023-03-26T00:49:19.461Z,9.82
2023-03-26T00:52:27.972Z,9.84
2023-03-26T00:55:36.411Z,9.82
2023-03-26T00:58:45.936Z,9.89
2023-03-26T01:01:54.481Z,9.89
2023-03-26T01:05:39.441Z,9.85
2023-03-26T01:08:46.859Z,9.88
2023-03-26T01:12:01.468Z,9.88
2023-03-26T01:15:10.506Z,9.82
2023-03-26T01:18:22.857Z,9.76
2023-03-26T01:21:35.421Z,9.88
2023-03-26T01:24:50.506Z,9.90
2023-03-26T01:27:58.937Z,10.02
2023-03-26T01:31:21.430Z,9.96
2023-03-26T01:34:49.956Z,10.00
2023-03-26T01:38:21.118Z,10.05
2023-03-26T01:41:44.509Z,10.07
2023-03-26T01:44:59.812Z,10.05
2023-03-26T01:48:15.423Z,10.10
2023-03-26T01:51:35.741Z,10.16
2023-03-26T01:54:50.450Z,10.13
2023-03-26T01:58:19.281Z,10.04
2023-03-26T02:01:45.545Z,9.97
2023-03-26T02:05:30.486Z,9.96
2023-03-26T02:08:42.378Z,9.92
2023-03-26T02:11:51.825Z,9.94
2023-03-26T02:15:08.543Z,9.96
2023-03-26T02:18:10.325Z,9.99
2023-03-26T02:21:29.499Z,9.91
2023-03-26T02:24:45.450Z,9.99
2023-03-26T02:27:55.504Z,9.98
2023-03-26T02:31:11.580Z,9.90
2023-03-26T02:34:19.522Z,9.85
2023-03-26T02:37:28.127Z,9.79
2023-03-26T02:40:36.745Z,9.70
2023-03-26T02:43:45.239Z,9.71
2023-03-26T02:47:10.791Z,9.68
2023-03-26T02:50:19.886Z,9.65
2023-03-26T02:53:28.738Z,9.51
2023-03-26T02:56:43.548Z,9.56
2023-03-26T02:59:51.477Z,9.59
2023-03-26T03:03:07.588Z,9.59
2023-03-26T03:06:16.460Z,9.61
2023-03-26T03:09:25.197Z,9.58
2023-03-26T03:12:33.485Z,9.65
2023-03-26T03:15:48.601Z,9.59
2023-03-26T03:18:50.409Z,9.62
2023-03-26T03:22:06.212Z,9.63
2023-03-26T03:25:09.115Z,9.68
2023-03-26T03:28:23.512Z,9.59
2023-03-26T03:31:32.535Z,9.59
2023-03-26T03:34:47.550Z,9.46
2023-03-26T03:37:55.483Z,9.44
2023-03-26T03:41:17.534Z,9.47
2023-03-26T03:44:19.528Z,9.43
2023-03-26T03:47:34.574Z,9.46
2023-03-26T03:50:42.540Z,9.48
2023-03-26T03:53:51.101Z,9.53
2023-03-26T03:56:59.573Z,9.59
2023-03-26T04:00:09.171Z,9.57
2023-03-26T04:03:33.082Z,9.47
2023-03-26T04:06:35.833Z,9.38
2023-03-26T04:09:50.530Z,9.35
2023-03-26T04:13:05.522Z,9.30
2023-03-26T04:16:14.597Z,9.22
2023-03-26T04:19:29.616Z,9.06
2023-03-26T04:22:31.390Z,9.00
2023-03-26T04:25:52.790Z,9.05
2023-03-26T04:29:05.534Z,9.14
2023-03-26T04:32:32.597Z,9.22
2023-03-26T04:35:47.528Z,9.27
2023-03-26T04:38:49.949Z,9.31
2023-03-26T04:42:11.557Z,9.34
2023-03-26T04:45:21.557Z,9.32
2023-03-26T04:48:30.725Z,9.31
2023-03-26T04:51:47.650Z,9.31
2023-03-26T04:54:57.085Z,9.30
2023-03-26T04:58:05.615Z,9.17
2023-03-26T05:01:14.216Z,9.11
2023-03-26T05:04:22.609Z,9.13
2023-03-26T05:07:31.122Z,9.30
2023-03-26T05:10:39.603Z,9.36
2023-03-26T05:13:49.006Z,9.42
2023-03-26T05:16:57.634Z,9.57
2023-03-26T05:20:08.462Z,9.60
2023-03-26T05:23:22.653Z,9.80
2023-03-26T05:26:45.593Z,9.84
2023-03-26T05:29:54.569Z,9.97
2023-03-26T05:33:03.405Z,10.11
2023-03-26T05:36:14.549Z,10.24
2023-03-26T05:39:29.585Z,10.32
2023-03-26T05:42:51.557Z,10.29
2023-03-26T05:46:00.708Z,10.30
2023-03-26T05:49:09.215Z,10.31
2023-03-26T05:52:23.561Z,9.97
2023-03-26T05:55:38.672Z,10.38
2023-03-26T05:58:47.740Z,10.39
2023-03-26T06:02:02.569Z,10.44
2023-03-26T06:05:12.286Z,10.51
2023-03-26T06:08:21.565Z,10.39
2023-03-26T06:11:29.573Z,10.41
2023-03-26T06:14:38.210Z,10.41
2023-03-26T06:17:46.631Z,10.44
2023-03-26T06:20:56.199Z,10.43
2023-03-26T06:24:12.614Z,10.57
2023-03-26T06:27:14.248Z,10.73
2023-03-26T06:30:30.626Z,10.78
2023-03-26T06:33:32.568Z,10.69
2023-03-26T06:36:47.595Z,10.86
2023-03-26T06:39:55.593Z,10.90
2023-03-26T06:43:11.210Z,11.15
2023-03-26T06:46:25.660Z,11.21
2023-03-26T06:49:27.654Z,11.57
2023-03-26T06:52:42.602Z,11.98
2023-03-26T06:56:00.611Z,12.24
2023-03-26T06:59:02.703Z,12.54
2023-03-26T07:02:17.601Z,12.71
2023-03-26T07:05:20.030Z,12.82
2023-03-26T07:08:34.626Z,12.92
2023-03-26T07:11:49.631Z,12.98
2023-03-26T07:14:59.655Z,13.04
2023-03-26T07:18:14.634Z,13.08
2023-03-26T07:21:16.649Z,13.09
2023-03-26T07:24:32.734Z,13.11
2023-03-26T07:27:51.610Z,13.08
2023-03-26T07:31:29.758Z,13.18
2023-03-26T07:35:01.621Z,13.23
2023-03-26T07:38:23.885Z,13.30
2023-03-26T07:41:58.951Z,13.22
2023-03-26T07:45:27.658Z,13.29
2023-03-26T07:48:41.971Z,13.47
2023-03-26T07:51:50.632Z,13.61
2023-03-26T07:54:59.404Z,13.72
2023-03-26T07:58:35.662Z,13.89
2023-03-26T08:02:09.728Z,14.17
2023-03-26T08:05:33.256Z,14.64
2023-03-26T08:08:59.686Z,14.96
2023-03-26T08:12:22.935Z,14.66
2023-03-26T08:15:38.057Z,14.37
2023-03-26T08:18:58.638Z,14.25
2023-03-26T08:22:24.654Z,14.14
2023-03-26T08:25:36.023Z,14.13
2023-03-26T08:29:08.691Z,14.14
2023-03-26T08:32:27.096Z,14.39
2023-03-26T08:35:28.905Z,14.54
2023-03-26T08:38:45.673Z,14.80
2023-03-26T08:42:22.328Z,14.82
2023-03-26T08:46:12.719Z,14.78
2023-03-26T08:49:52.668Z,14.91
2023-03-26T08:53:31.049Z,14.96
2023-03-26T08:57:15.680Z,15.02
2023-03-26T09:00:39.604Z,15.35
2023-03-26T09:04:23.734Z,15.40
2023-03-26T09:08:05.755Z,15.72
2023-03-26T09:11:53.674Z,15.56
2023-03-26T09:15:17.069Z,15.94
2023-03-26T09:18:52.509Z,15.85
2023-03-26T09:22:12.795Z,15.77
2023-03-26T09:25:45.718Z,15.75
2023-03-26T09:29:24.681Z,15.60
2023-03-26T09:33:04.745Z,15.83
2023-03-26T09:36:26.806Z,15.96
2023-03-26T09:39:47.079Z,16.04
2023-03-26T09:43:27.716Z,16.47
2023-03-26T09:46:55.361Z,16.54
2023-03-26T09:50:28.706Z,16.24
2023-03-26T09:54:07.281Z,15.88
2023-03-26T09:57:50.780Z,15.95
2023-03-26T10:01:26.700Z,15.76
2023-03-26T10:05:22.126Z,16.16
2023-03-26T10:08:59.819Z,16.18
2023-03-26T10:12:24.725Z,15.88
2023-03-26T10:15:39.913Z,15.62
2023-03-26T10:19:15.718Z,15.60
2023-03-26T10:22:49.742Z,15.57
2023-03-26T10:26:13.570Z,15.55
2023-03-26T10:29:58.748Z,15.15
2023-03-26T10:33:29.024Z,15.03
2023-03-26T10:36:51.013Z,14.26
2023-03-26T10:40:22.800Z,13.60
2023-03-26T10:44:08.483Z,13.37
2023-03-26T10:47:37.724Z,13.51
2023-03-26T10:51:20.054Z,14.24
2023-03-26T10:54:52.714Z,14.53
2023-03-26T10:58:25.746Z,14.65
2023-03-26T11:01:53.823Z,14.95
2023-03-26T11:05:41.931Z,14.86
2023-03-26T11:08:55.042Z,14.74
2023-03-26T11:12:32.781Z,14.58
2023-03-26T11:15:52.128Z,14.32
2023-03-26T11:19:17.780Z,14.35
2023-03-26T11:23:00.736Z,14.40
2023-03-26T11:26:22.802Z,17.29
2023-03-26T11:29:40.723Z,16.44
2023-03-26T11:33:01.135Z,18.68
2023-03-26T11:36:13.703Z,16.49
2023-03-26T11:39:30.755Z,15.75
2023-03-26T11:42:47.891Z,15.26
2023-03-26T11:45:57.752Z,19.51
2023-03-26T11:49:17.770Z,23.18
2023-03-26T11:52:33.839Z,27.54
2023-03-26T11:55:41.762Z,29.08
2023-03-26T11:58:58.858Z,30.50
2023-03-26T12:02:34.009Z,30.73
2023-03-26T12:06:03.802Z,30.55
2023-03-26T12:09:24.090Z,24.00
2023-03-26T12:12:38.425Z,20.43
2023-03-26T12:15:52.842Z,19.22
2023-03-26T12:19:02.866Z,19.52
2023-03-26T12:22:36.804Z,22.80
2023-03-26T12:25:52.807Z,19.34
2023-03-26T12:29:14.806Z,20.63
2023-03-26T12:32:16.545Z,25.95
2023-03-26T12:35:34.094Z,23.71
2023-03-26T12:39:15.928Z,20.63
2023-03-26T12:44:50.754Z,19.32
2023-03-26T12:47:57.602Z,18.73
2023-03-26T12:50:05.834Z,18.00
2023-03-26T12:53:53.516Z,18.38
2023-03-26T12:57:24.858Z,18.20
2023-03-26T13:00:59.101Z,17.62
2023-03-26T13:04:29.167Z,17.41
2023-03-26T13:07:57.837Z,17.37
2023-03-26T13:11:42.838Z,17.50
2023-03-26T13:15:08.595Z,17.60
2023-03-26T13:18:41.946Z,17.71
2023-03-26T13:22:00.246Z,17.69
2023-03-26T13:25:30.825Z,17.73
2023-03-26T13:28:50.653Z,17.74
2023-03-26T13:32:28.867Z,17.35
2023-03-26T13:36:06.570Z,17.32
2023-03-26T13:39:33.799Z,17.78
2023-03-26T13:43:08.858Z,17.78
2023-03-26T13:46:37.894Z,17.74
2023-03-26T13:49:56.189Z,17.78
2023-03-26T13:53:20.141Z,17.61
2023-03-26T13:56:40.046Z,17.62
2023-03-26T14:00:03.162Z,17.72
2023-03-26T14:03:30.900Z,17.65
2023-03-26T14:06:44.013Z,17.64
2023-03-26T14:10:13.883Z,17.48
2023-03-26T14:13:33.326Z,17.78
2023-03-26T14:16:57.879Z,18.01
2023-03-26T14:20:34.983Z,17.91
2023-03-26T14:24:13.189Z,17.94
2023-03-26T14:27:44.146Z,17.77
2023-03-26T14:31:14.897Z,17.47
2023-03-26T14:34:45.585Z,17.69
2023-03-26T14:38:20.908Z,17.83
2023-03-26T14:41:55.845Z,17.78
2023-03-26T14:45:31.317Z,17.72
2023-03-26T14:49:19.854Z,17.62
2023-03-26T14:52:37.466Z,17.49
2023-03-26T14:56:15.043Z,17.43
2023-03-26T14:59:44.933Z,17.41
2023-03-26T15:03:26.513Z,17.44
2023-03-26T15:07:12.181Z,17.30
2023-03-26T15:10:50.905Z,17.24
2023-03-26T15:14:09.437Z,17.21
2023-03-26T15:17:47.965Z,17.14
2023-03-26T15:21:30.112Z,17.04
2023-03-26T15:25:21.026Z,16.93
2023-03-26T15:28:48.941Z,16.84
2023-03-26T15:32:33.770Z,16.80
2023-03-26T15:36:28.892Z,16.76
2023-03-26T15:39:59.311Z,16.74
2023-03-26T15:43:12.973Z,16.75
2023-03-26T15:46:40.178Z,16.76
2023-03-26T15:49:47.598Z,16.79
2023-03-26T15:53:21.929Z,16.70
2023-03-26T15:56:53.196Z,16.62
2023-03-26T16:00:23.228Z,16.49
2023-03-26T16:03:47.922Z,16.37
2023-03-26T16:07:06.927Z,16.26
2023-03-26T16:10:27.586Z,16.20
2023-03-26T16:13:46.947Z,16.16
2023-03-26T16:17:04.925Z,16.11
2023-03-26T16:20:38.930Z,16.04
2023-03-26T16:24:03.033Z,15.97
2023-03-26T16:27:26.249Z,15.88
2023-03-26T16:30:36.985Z,15.84
2023-03-26T16:34:12.002Z,15.79
2023-03-26T16:37:37.397Z,15.75
2023-03-26T16:41:06.979Z,15.68
2023-03-26T16:44:38.134Z,15.59
2023-03-26T16:47:57.999Z,15.47
2023-03-26T16:51:37.697Z,15.39
2023-03-26T16:54:56.995Z,15.30
2023-03-26T16:58:30.062Z,15.23
2023-03-26T17:01:51.983Z,15.21
2023-03-26T17:05:17.220Z,15.16
2023-03-26T17:08:47.001Z,15.07
2023-03-26T17:12:14.936Z,14.98
2023-03-26T17:15:47.187Z,14.93
2023-03-26T17:19:14.104Z,14.92
2023-03-26T17:22:50.713Z,14.89
2023-03-26T17:26:22.998Z,14.87
2023-03-26T17:29:40.028Z,14.86
2023-03-26T17:32:59.213Z,14.86
2023-03-26T17:36:42.966Z,14.86
2023-03-26T17:40:20.389Z,14.85
2023-03-26T17:43:40.762Z,14.91
2023-03-26T17:46:57.026Z,14.90
2023-03-26T17:50:17.682Z,14.86
2023-03-26T17:53:31.197Z,14.79
2023-03-26T17:56:46.993Z,14.73
2023-03-26T18:00:05.165Z,14.73
2023-03-26T18:03:34.015Z,14.74
2023-03-26T18:06:52.139Z,14.75
2023-03-26T18:10:38.030Z,14.75
2023-03-26T18:14:10.737Z,14.78
2023-03-26T18:17:25.013Z,14.79
2023-03-26T18:20:34.989Z,14.84
2023-03-26T18:23:53.998Z,14.75
2023-03-26T18:27:13.235Z,14.77
2023-03-26T18:30:30.377Z,14.84
2023-03-26T18:33:49.034Z,14.78
2023-03-26T18:37:10.807Z,14.78
2023-03-26T18:40:26.014Z,14.81
2023-03-26T18:43:49.055Z,14.74
2023-03-26T18:46:57.805Z,14.75
2023-03-26T18:50:12.989Z,14.74
2023-03-26T18:56:50.609Z,14.68
2023-03-26T19:00:22.344Z,14.65
2023-03-26T19:03:25.264Z,14.63
2023-03-26T19:06:45.007Z,14.62
2023-03-26T19:09:46.852Z,14.61
2023-03-26T19:13:04.061Z,14.55
2023-03-26T19:16:15.495Z,14.61
2023-03-26T19:19:43.082Z,14.55
2023-03-26T19:22:47.185Z,14.34
2023-03-26T19:26:03.024Z,14.31
2023-03-26T19:29:12.086Z,14.24
2023-03-26T19:32:28.693Z,14.29
2023-03-26T19:35:44.122Z,14.28
2023-03-26T19:39:09.077Z,14.23
2023-03-26T19:42:15.502Z,14.29
2023-03-26T19:45:59.801Z,14.22
2023-03-26T19:49:38.064Z,14.27
2023-03-26T19:52:39.695Z,14.26
2023-03-26T19:56:06.315Z,14.28
2023-03-26T19:59:08.213Z,14.22
2023-03-26T20:02:23.205Z,14.19
2023-03-26T20:05:28.931Z,14.20
2023-03-26T20:08:44.209Z,14.19
2023-03-26T20:11:52.078Z,14.19
2023-03-26T20:15:07.084Z,14.18
2023-03-26T20:18:34.129Z,14.14
2023-03-26T20:21:45.094Z,14.07
2023-03-26T20:24:53.728Z,13.99
2023-03-26T20:28:08.050Z,13.95
2023-03-26T20:31:14.383Z,13.89
2023-03-26T20:34:30.133Z,13.84
2023-03-26T20:37:38.954Z,13.83
2023-03-26T20:40:48.190Z,13.86
2023-03-26T20:44:03.752Z,13.88
2023-03-26T20:47:12.489Z,13.88
2023-03-26T20:50:22.589Z,13.80
2023-03-26T20:53:31.088Z,13.78
2023-03-26T20:56:46.087Z,13.76
2023-03-26T20:59:54.578Z,13.76
2023-03-26T21:03:03.098Z,13.72
2023-03-26T21:06:13.241Z,13.78
2023-03-26T21:09:28.911Z,13.74
2023-03-26T21:12:34.781Z,13.81
2023-03-26T21:15:49.163Z,13.78
2023-03-26T21:18:58.080Z,13.75
2023-03-26T21:22:29.118Z,13.72
2023-03-26T21:25:52.819Z,13.68
2023-03-26T21:29:00.832Z,13.64
2023-03-26T21:32:09.110Z,13.57
2023-03-26T21:35:25.154Z,13.58
2023-03-26T21:38:34.199Z,13.55
2023-03-26T21:42:05.026Z,13.39
2023-03-26T21:45:15.114Z,13.22
2023-03-26T21:48:30.137Z,13.24
2023-03-26T21:51:33.226Z,13.16
2023-03-26T21:54:48.175Z,13.04
2023-03-26T21:58:25.122Z,13.02
2023-03-26T22:01:50.200Z,13.00
2023-03-26T22:05:04.135Z,12.91
2023-03-26T22:08:32.743Z,13.00
2023-03-26T22:11:41.136Z,12.95
2023-03-26T22:14:49.608Z,12.96
2023-03-26T22:17:58.202Z,12.78
2023-03-26T22:21:13.153Z,12.79
2023-03-26T22:24:22.009Z,12.80
2023-03-26T22:27:43.834Z,12.71
2023-03-26T22:30:54.618Z,12.64
2023-03-26T22:34:03.401Z,12.46
2023-03-26T22:37:21.840Z,12.42
2023-03-26T22:40:23.698Z,12.30
2023-03-26T22:43:38.121Z,12.19
2023-03-26T22:46:40.131Z,12.04
2023-03-26T22:49:55.238Z,12.04
2023-03-26T22:52:57.331Z,12.05
2023-03-26T22:56:13.906Z,11.96
2023-03-26T22:59:15.601Z,11.70
2023-03-26T23:02:30.185Z,11.72
2023-03-26T23:05:31.966Z,11.44
2023-03-26T23:08:46.152Z,11.44
2023-03-26T23:11:55.147Z,11.49
2023-03-26T23:15:05.449Z,11.40
2023-03-26T23:18:13.275Z,11.55
2023-03-26T23:21:22.465Z,11.62
2023-03-26T23:24:31.224Z,11.63
2023-03-26T23:27:39.728Z,11.59
2023-03-26T23:30:52.157Z,11.68
2023-03-26T23:34:00.704Z,11.61
2023-03-26T23:37:09.482Z,11.52
2023-03-26T23:40:24.168Z,11.43
2023-03-26T23:43:33.165Z,11.24
2023-03-26T23:46:48.409Z,11.23
2023-03-26T23:49:56.787Z,11.24
2023-03-26T23:53:05.290Z,11.24
2023-03-26T23:56:14.119Z,11.16
2023-03-26T23:59:22.166Z,11.13
